Time;durP1;ratioP1;P1;durP2;ratioP2;P2;SDS_P1;SDS_P2;PMS_P1;PMS_P2;Temp;Humidity;BMP_temperature;BMP_pressure;BME280_temperature;BME280_humidity;BME280_pressure;Samples;Min_cycle;Max_cycle;Signal;HPM_P1;HPM_P2
2021/10/02 00:36:10;;;;;;;0.10;0.10;;;;;;;;;;5051803;28;20233;-63
2021/10/02 00:41:36;;;;;;;0.10;0.10;;;;;;;;;;5050155;28;20205;-64
2021/10/02 00:46:59;;;;;;;0.10;0.10;;;;;;;;;;5021840;28;20197;-63
2021/10/02 00:49:26;;;;;;;0.10;0.10;;;;;;;;;;5054930;28;20508;-62
2021/10/02 00:51:52;;;;;;;0.10;0.10;;;;;;;;;;5054448;28;20211;-61
2021/10/02 00:54:18;;;;;;;0.10;0.10;;;;;;;;;;5058498;28;20488;-63
2021/10/02 00:56:44;;;;;;;0.10;0.10;;;;;;;;;;5063434;28;20205;-62
2021/10/02 00:59:11;;;;;;;0.10;0.10;;;;;;;;;;5063285;28;20226;-63
2021/10/02 01:01:44;;;;;;;0.10;0.10;;;;;;;;;;5048778;28;20259;-62
2021/10/02 01:04:14;;;;;;;0.10;0.10;;;;;;;;;;5051098;28;20200;-64
2021/10/02 01:06:49;;;;;;;0.10;0.10;;;;;;;;;;5061858;28;20227;-63
2021/10/02 01:09:30;;;;;;;0.10;0.10;;;;;;;;;;5063068;28;20263;-63
2021/10/02 01:12:00;;;;;;;0.10;0.10;;;;;;;;;;5044381;28;20235;-63
2021/10/02 01:14:29;;;;;;;0.10;0.10;;;;;;;;;;5054631;28;20433;-63
2021/10/02 01:16:57;;;;;;;0.20;0.20;;;;;;;;;;5061894;28;20437;-62
2021/10/02 01:19:35;;;;;;;0.10;0.10;;;;;;;;;;5051432;28;20242;-62
2021/10/02 01:22:09;;;;;;;0.10;0.10;;;;;;;;;;5047841;28;20216;-62
2021/10/02 01:24:44;;;;;;;0.10;0.10;;;;;;;;;;5063016;28;20192;-63
2021/10/02 01:27:17;;;;;;;0.60;0.60;;;;;;;;;;5048521;28;20574;-63
2021/10/02 01:29:45;;;;;;;0.10;0.10;;;;;;;;;;5050260;28;20210;-62
2021/10/02 01:32:15;;;;;;;4.37;4.13;;;;;;;;;;5061382;28;20249;-63
2021/10/02 01:34:52;;;;;;;0.10;0.10;;;;;;;;;;5062618;28;20201;-63
2021/10/02 01:37:25;;;;;;;0.10;0.10;;;;;;;;;;5062467;28;20207;-61
2021/10/02 01:48:10;;;;;;;0.10;0.10;;;;;;;;;;5042754;28;20246;-63
2021/10/02 01:50:37;;;;;;;0.10;0.10;;;;;;;;;;5042770;28;20251;-62
2021/10/02 01:53:05;;;;;;;0.10;0.10;;;;;;;;;;5058879;28;20490;-62
2021/10/02 01:55:32;;;;;;;0.10;0.10;;;;;;;;;;5054321;28;20208;-63
2021/10/02 01:58:00;;;;;;;0.10;0.10;;;;;;;;;;5056539;28;20199;-63
2021/10/02 02:00:28;;;;;;;0.20;0.20;;;;;;;;;;5049603;28;20204;-62
2021/10/02 02:02:57;;;;;;;0.10;0.10;;;;;;;;;;5062315;28;20232;-65
2021/10/02 02:05:25;;;;;;;0.07;0.07;;;;;;;;;;5056662;28;20274;-76
2021/10/02 02:07:53;;;;;;;0.10;0.10;;;;;;;;;;5042646;28;20251;-72
2021/10/02 02:10:20;;;;;;;0.10;0.10;;;;;;;;;;5042434;28;20271;-76
2021/10/02 02:12:48;;;;;;;0.10;0.10;;;;;;;;;;5042552;28;20201;-76
2021/10/02 02:15:15;;;;;;;0.20;0.20;;;;;;;;;;5042516;28;20241;-76
2021/10/02 02:17:44;;;;;;;0.10;0.10;;;;;;;;;;5051355;28;20204;-75
2021/10/02 02:20:11;;;;;;;0.10;0.10;;;;;;;;;;5062146;28;20262;-75
2021/10/02 02:22:37;;;;;;;0.10;0.10;;;;;;;;;;5061964;28;20228;-75
2021/10/02 02:25:04;;;;;;;0.10;0.10;;;;;;;;;;5048463;28;20486;-74
2021/10/02 02:27:31;;;;;;;0.10;0.10;;;;;;;;;;5056425;28;20259;-75
2021/10/02 02:29:57;;;;;;;0.10;0.10;;;;;;;;;;5042213;28;20208;-75
2021/10/02 02:32:23;;;;;;;0.10;0.10;;;;;;;;;;5055960;28;20198;-75
2021/10/02 02:34:51;;;;;;;0.10;0.10;;;;;;;;;;5051979;28;20208;-75
2021/10/02 02:37:18;;;;;;;0.10;0.10;;;;;;;;;;5047270;28;20209;-75
2021/10/02 02:39:44;;;;;;;0.10;0.10;;;;;;;;;;5049234;28;20246;-75
2021/10/02 02:42:10;;;;;;;0.10;0.10;;;;;;;;;;5052127;28;20545;-75
2021/10/02 02:44:36;;;;;;;0.10;0.10;;;;;;;;;;5049768;28;20204;-75
2021/10/02 02:47:05;;;;;;;0.10;0.10;;;;;;;;;;5061884;28;20207;-76
2021/10/02 02:49:35;;;;;;;0.10;0.10;;;;;;;;;;5061780;28;20249;-76
2021/10/02 02:52:06;;;;;;;0.10;0.10;;;;;;;;;;5048283;28;20377;-75
2021/10/02 02:54:34;;;;;;;0.10;0.10;;;;;;;;;;5065746;28;20204;-75
2021/10/02 02:57:04;;;;;;;0.10;0.10;;;;;;;;;;5065584;28;20203;-75
2021/10/02 02:59:31;;;;;;;0.10;0.10;;;;;;;;;;5057907;28;20209;-76
2021/10/02 03:01:59;;;;;;;0.10;0.10;;;;;;;;;;5059080;28;20504;-75
2021/10/02 03:04:28;;;;;;;0.10;0.10;;;;;;;;;;5059537;28;20225;-76
2021/10/02 03:06:55;;;;;;;0.10;0.10;;;;;;;;;;5057784;28;20232;-75
2021/10/02 03:09:24;;;;;;;0.10;0.10;;;;;;;;;;5065375;28;20204;-75
2021/10/02 03:11:52;;;;;;;0.10;0.10;;;;;;;;;;5065371;28;20208;-75
2021/10/02 03:14:20;;;;;;;0.10;0.10;;;;;;;;;;5051154;28;20200;-75
2021/10/02 03:16:47;;;;;;;0.17;0.17;;;;;;;;;;5065300;28;20267;-75
2021/10/02 03:19:14;;;;;;;0.10;0.10;;;;;;;;;;5065025;28;20242;-75
2021/10/02 03:21:41;;;;;;;0.10;0.10;;;;;;;;;;5065247;28;20424;-75
2021/10/02 03:24:08;;;;;;;0.10;0.10;;;;;;;;;;5064792;28;20224;-76
2021/10/02 03:26:37;;;;;;;0.10;0.10;;;;;;;;;;5064988;28;20204;-75
2021/10/02 03:29:04;;;;;;;0.10;0.10;;;;;;;;;;5065063;28;20562;-75
2021/10/02 03:31:31;;;;;;;0.10;0.10;;;;;;;;;;5064951;28;20264;-75
2021/10/02 03:33:58;;;;;;;0.10;0.10;;;;;;;;;;5065111;28;20203;-75
2021/10/02 03:36:24;;;;;;;0.10;0.10;;;;;;;;;;5064871;28;20204;-75
2021/10/02 03:38:50;;;;;;;0.10;0.10;;;;;;;;;;5055920;28;20251;-75
2021/10/02 03:41:18;;;;;;;0.10;0.10;;;;;;;;;;5045562;28;20334;-76
2021/10/02 03:43:46;;;;;;;0.20;0.20;;;;;;;;;;5064680;28;20286;-76
2021/10/02 03:46:12;;;;;;;0.10;0.10;;;;;;;;;;5051544;28;20507;-75
2021/10/02 03:48:38;;;;;;;0.10;0.10;;;;;;;;;;5064098;28;20200;-76
2021/10/02 03:51:05;;;;;;;0.10;0.10;;;;;;;;;;5064620;28;20204;-75
2021/10/02 03:53:31;;;;;;;0.10;0.10;;;;;;;;;;5064547;28;20200;-75
2021/10/02 03:55:58;;;;;;;0.10;0.10;;;;;;;;;;5064518;28;20246;-76
2021/10/02 03:58:24;;;;;;;0.10;0.10;;;;;;;;;;5064059;28;20212;-74
2021/10/02 04:00:52;;;;;;;0.10;0.10;;;;;;;;;;5064265;28;20210;-76
2021/10/02 04:03:18;;;;;;;0.10;0.10;;;;;;;;;;5063751;28;20223;-76
2021/10/02 04:05:44;;;;;;;0.10;0.10;;;;;;;;;;5063876;28;20340;-75
2021/10/02 04:08:10;;;;;;;0.10;0.10;;;;;;;;;;5063974;28;20214;-76
2021/10/02 04:10:37;;;;;;;0.10;0.10;;;;;;;;;;5063935;28;20207;-76
2021/10/02 04:13:03;;;;;;;0.10;0.10;;;;;;;;;;5064323;28;20217;-75
2021/10/02 04:15:30;;;;;;;0.10;0.10;;;;;;;;;;5064043;28;20370;-75
2021/10/02 04:17:58;;;;;;;0.10;0.10;;;;;;;;;;5064192;28;20495;-76
2021/10/02 04:20:24;;;;;;;0.30;0.30;;;;;;;;;;5063955;28;20529;-75
2021/10/02 04:22:50;;;;;;;0.10;0.10;;;;;;;;;;5058119;28;20204;-75
2021/10/02 04:25:17;;;;;;;0.10;0.10;;;;;;;;;;5055661;28;20241;-75
2021/10/02 04:27:43;;;;;;;0.10;0.10;;;;;;;;;;5063861;28;20227;-76
2021/10/02 04:30:09;;;;;;;0.10;0.10;;;;;;;;;;5064080;28;20494;-76
2021/10/02 04:32:36;;;;;;;0.10;0.10;;;;;;;;;;5063670;28;20231;-76
2021/10/02 04:35:03;;;;;;;0.10;0.10;;;;;;;;;;5051290;28;20561;-76
2021/10/02 04:37:30;;;;;;;0.10;0.10;;;;;;;;;;5051706;28;20555;-76
2021/10/02 04:39:56;;;;;;;0.10;0.10;;;;;;;;;;5049405;28;20212;-75
2021/10/02 04:42:22;;;;;;;0.10;0.10;;;;;;;;;;5049490;28;20220;-76
2021/10/02 04:44:48;;;;;;;0.10;0.10;;;;;;;;;;5051154;28;20236;-76
2021/10/02 04:47:14;;;;;;;0.10;0.10;;;;;;;;;;5043556;28;20323;-76
2021/10/02 04:49:41;;;;;;;0.40;0.40;;;;;;;;;;5043582;28;20255;-75
2021/10/02 04:52:08;;;;;;;0.10;0.10;;;;;;;;;;5048104;28;20201;-76
2021/10/02 04:54:35;;;;;;;0.10;0.10;;;;;;;;;;5056618;28;20239;-75
2021/10/02 04:57:01;;;;;;;0.10;0.10;;;;;;;;;;5054594;28;20388;-75
2021/10/02 04:59:27;;;;;;;0.10;0.10;;;;;;;;;;5054664;28;20272;-75
2021/10/02 05:01:53;;;;;;;0.10;0.10;;;;;;;;;;5055447;28;20271;-75
2021/10/02 05:04:20;;;;;;;0.10;0.10;;;;;;;;;;5048968;28;20220;-76
2021/10/02 05:06:46;;;;;;;0.10;0.10;;;;;;;;;;5046943;28;20270;-75
2021/10/02 05:09:13;;;;;;;0.10;0.10;;;;;;;;;;5060927;28;20500;-76
2021/10/02 05:11:40;;;;;;;0.10;0.10;;;;;;;;;;5054787;28;20253;-75
2021/10/02 05:14:06;;;;;;;0.10;0.10;;;;;;;;;;5052613;28;20196;-74
2021/10/02 05:16:32;;;;;;;0.10;0.10;;;;;;;;;;5052451;28;20505;-75
2021/10/02 05:18:58;;;;;;;0.10;0.10;;;;;;;;;;5059130;28;20478;-76
2021/10/02 05:21:24;;;;;;;0.10;0.10;;;;;;;;;;5059003;28;20200;-75
2021/10/02 05:23:51;;;;;;;0.10;0.10;;;;;;;;;;5062730;28;20234;-75
2021/10/02 05:26:18;;;;;;;0.10;0.10;;;;;;;;;;5049042;28;20243;-75
2021/10/02 05:28:44;;;;;;;0.10;0.10;;;;;;;;;;5060628;28;20214;-76
2021/10/02 05:31:11;;;;;;;0.10;0.10;;;;;;;;;;5058838;28;20241;-76
2021/10/02 05:33:37;;;;;;;0.10;0.10;;;;;;;;;;5062356;28;20412;-76
2021/10/02 05:36:03;;;;;;;0.10;0.10;;;;;;;;;;5062442;28;20200;-75
2021/10/02 05:38:30;;;;;;;0.10;0.10;;;;;;;;;;5062855;28;20549;-76
2021/10/02 05:40:56;;;;;;;0.03;0.03;;;;;;;;;;5061884;28;20240;-75
2021/10/02 05:43:23;;;;;;;0.10;0.10;;;;;;;;;;5053416;28;20289;-75
2021/10/02 05:45:49;;;;;;;0.10;0.10;;;;;;;;;;5062740;28;20562;-75
2021/10/02 05:48:16;;;;;;;0.10;0.10;;;;;;;;;;5058600;28;20211;-76
2021/10/02 05:50:45;;;;;;;0.10;0.10;;;;;;;;;;5055405;28;20230;-75
2021/10/02 05:53:11;;;;;;;0.10;0.10;;;;;;;;;;5056435;28;20267;-76
2021/10/02 05:55:37;;;;;;;0.10;0.10;;;;;;;;;;5048755;28;20250;-76
2021/10/02 05:58:03;;;;;;;0.10;0.10;;;;;;;;;;5062693;28;20250;-75
2021/10/02 06:00:31;;;;;;;0.10;0.10;;;;;;;;;;5062431;28;20211;-75
2021/10/02 06:02:59;;;;;;;0.10;0.10;;;;;;;;;;5052494;28;20208;-76
2021/10/02 06:05:27;;;;;;;0.17;0.17;;;;;;;;;;5058725;28;20242;-75
2021/10/02 06:07:54;;;;;;;0.10;0.10;;;;;;;;;;5062308;28;20242;-75
2021/10/02 06:10:20;;;;;;;0.10;0.10;;;;;;;;;;5062370;28;20232;-76
2021/10/02 06:12:46;;;;;;;0.10;0.10;;;;;;;;;;5062435;28;20229;-76
2021/10/02 06:15:12;;;;;;;0.10;0.10;;;;;;;;;;5062505;28;20206;-76
2021/10/02 06:17:41;;;;;;;0.10;0.10;;;;;;;;;;5061955;28;20206;-76
2021/10/02 06:20:07;;;;;;;0.10;0.10;;;;;;;;;;5062096;28;20226;-76
2021/10/02 06:22:34;;;;;;;0.10;0.10;;;;;;;;;;5062304;28;20263;-76
2021/10/02 06:25:00;;;;;;;0.10;0.10;;;;;;;;;;5062299;28;20282;-76
2021/10/02 06:27:26;;;;;;;0.10;0.10;;;;;;;;;;5064863;28;20314;-75
2021/10/02 06:29:53;;;;;;;0.10;0.10;;;;;;;;;;5066164;28;20500;-69
2021/10/02 06:32:19;;;;;;;0.10;0.10;;;;;;;;;;5065787;28;20250;-68
2021/10/02 06:34:46;;;;;;;0.10;0.10;;;;;;;;;;5052013;28;20249;-69
2021/10/02 06:37:12;;;;;;;0.10;0.10;;;;;;;;;;5053943;28;20247;-68
2021/10/02 06:39:39;;;;;;;0.10;0.10;;;;;;;;;;5064188;28;20295;-68
2021/10/02 06:42:05;;;;;;;0.10;0.10;;;;;;;;;;5065872;28;20411;-69
2021/10/02 06:44:31;;;;;;;0.10;0.10;;;;;;;;;;5065348;28;20227;-68
2021/10/02 06:46:58;;;;;;;0.10;0.10;;;;;;;;;;5065634;28;20207;-68
2021/10/02 06:49:27;;;;;;;0.10;0.10;;;;;;;;;;5051496;28;20207;-68
2021/10/02 06:51:55;;;;;;;0.10;0.10;;;;;;;;;;5065631;28;20238;-69
2021/10/02 06:54:21;;;;;;;0.10;0.10;;;;;;;;;;5065320;28;20242;-69
2021/10/02 06:56:47;;;;;;;0.10;0.10;;;;;;;;;;5051198;28;20507;-68
2021/10/02 06:59:14;;;;;;;0.10;0.10;;;;;;;;;;5065280;28;20210;-69
2021/10/02 07:01:40;;;;;;;0.10;0.10;;;;;;;;;;5065476;28;20204;-69
2021/10/02 07:04:06;;;;;;;0.10;0.10;;;;;;;;;;5065391;28;20224;-68
2021/10/02 07:06:32;;;;;;;0.10;0.10;;;;;;;;;;5065315;28;20226;-65
2021/10/02 07:09:00;;;;;;;0.10;0.10;;;;;;;;;;5065023;28;20225;-65
2021/10/02 07:11:26;;;;;;;0.10;0.10;;;;;;;;;;5055454;28;20306;-66
2021/10/02 07:13:53;;;;;;;0.10;0.10;;;;;;;;;;5061467;28;20204;-65
2021/10/02 07:16:20;;;;;;;0.10;0.10;;;;;;;;;;5065314;28;20266;-65
2021/10/02 07:18:46;;;;;;;0.10;0.10;;;;;;;;;;5065131;28;20204;-65
2021/10/02 07:21:13;;;;;;;0.10;0.10;;;;;;;;;;5064884;28;20222;-65
2021/10/02 07:23:39;;;;;;;0.10;0.10;;;;;;;;;;5065113;28;20206;-64
2021/10/02 07:26:07;;;;;;;0.10;0.10;;;;;;;;;;5052744;28;20205;-65
2021/10/02 07:28:33;;;;;;;0.10;0.10;;;;;;;;;;5055677;28;20213;-64
2021/10/02 07:31:00;;;;;;;0.10;0.10;;;;;;;;;;5050965;28;20498;-64
2021/10/02 07:33:26;;;;;;;0.10;0.10;;;;;;;;;;5056422;28;20207;-65
2021/10/02 07:35:53;;;;;;;0.10;0.10;;;;;;;;;;5059596;28;20226;-65
2021/10/02 07:38:19;;;;;;;0.10;0.10;;;;;;;;;;5057285;28;20208;-76
2021/10/02 07:40:46;;;;;;;0.10;0.10;;;;;;;;;;5044873;28;20347;-75
2021/10/02 07:43:15;;;;;;;0.10;0.10;;;;;;;;;;5049439;28;20520;-76
2021/10/02 07:45:43;;;;;;;0.10;0.10;;;;;;;;;;5052684;28;20235;-75
2021/10/02 07:48:10;;;;;;;0.10;0.10;;;;;;;;;;5044870;28;20399;-75
2021/10/02 07:50:37;;;;;;;0.10;0.10;;;;;;;;;;5044633;28;20206;-76
2021/10/02 07:53:04;;;;;;;0.10;0.10;;;;;;;;;;5056977;28;20202;-76
2021/10/02 07:55:30;;;;;;;0.10;0.10;;;;;;;;;;5050548;28;20199;-75
2021/10/02 07:57:56;;;;;;;0.10;0.10;;;;;;;;;;5064599;28;20210;-76
2021/10/02 08:00:24;;;;;;;0.10;0.10;;;;;;;;;;5064410;28;20206;-76
2021/10/02 08:02:52;;;;;;;0.10;0.10;;;;;;;;;;5055039;28;20217;-76
2021/10/02 08:05:18;;;;;;;0.10;0.10;;;;;;;;;;5045607;28;20275;-75
2021/10/02 08:07:45;;;;;;;0.10;0.10;;;;;;;;;;5064330;28;20514;-75
2021/10/02 08:10:13;;;;;;;0.10;0.10;;;;;;;;;;5064434;28;20211;-76
2021/10/02 08:12:40;;;;;;;0.10;0.10;;;;;;;;;;5050169;28;20214;-76
2021/10/02 08:15:06;;;;;;;0.10;0.10;;;;;;;;;;5064215;28;20418;-76
2021/10/02 08:17:35;;;;;;;0.10;0.10;;;;;;;;;;5063812;28;20245;-75
2021/10/02 08:20:05;;;;;;;0.10;0.10;;;;;;;;;;5063780;28;20272;-76
2021/10/02 08:22:31;;;;;;;0.10;0.10;;;;;;;;;;5063857;28;20302;-75
2021/10/02 08:24:59;;;;;;;0.10;0.10;;;;;;;;;;5063954;28;20224;-73
2021/10/02 08:27:28;;;;;;;0.10;0.10;;;;;;;;;;5064108;28;20208;-75
2021/10/02 08:29:54;;;;;;;0.10;0.10;;;;;;;;;;5063881;28;20245;-76
2021/10/02 08:32:20;;;;;;;0.10;0.10;;;;;;;;;;5063584;28;20207;-76
2021/10/02 08:34:48;;;;;;;0.10;0.10;;;;;;;;;;5064004;28;20203;-75
2021/10/02 08:37:14;;;;;;;0.10;0.10;;;;;;;;;;5051463;28;20279;-75
2021/10/02 08:39:40;;;;;;;0.10;0.10;;;;;;;;;;5061727;28;20245;-77
2021/10/02 08:42:07;;;;;;;0.10;0.10;;;;;;;;;;5063788;28;20204;-75
2021/10/02 08:44:33;;;;;;;0.10;0.10;;;;;;;;;;5063195;28;20224;-76
2021/10/02 08:47:02;;;;;;;0.10;0.10;;;;;;;;;;5063733;28;20251;-76
2021/10/02 08:49:39;;;;;;;0.10;0.10;;;;;;;;;;5062129;28;20487;-74
2021/10/02 08:52:07;;;;;;;0.10;0.10;;;;;;;;;;5045096;28;20204;-77
2021/10/02 08:54:35;;;;;;;0.10;0.10;;;;;;;;;;5058551;28;20509;-75
2021/10/02 08:57:02;;;;;;;0.07;0.07;;;;;;;;;;5058763;28;20232;-75
2021/10/02 08:59:29;;;;;;;0.10;0.10;;;;;;;;;;5063459;28;20427;-69
2021/10/02 09:01:55;;;;;;;0.03;0.03;;;;;;;;;;5054167;28;20256;-75
2021/10/02 09:04:21;;;;;;;0.10;0.10;;;;;;;;;;5055625;28;20205;-75
2021/10/02 09:06:48;;;;;;;0.05;0.05;;;;;;;;;;5057091;28;20609;-76
2021/10/02 09:09:17;;;;;;;0.10;0.10;;;;;;;;;;5055960;28;20204;-75
2021/10/02 09:11:43;;;;;;;0.10;0.10;;;;;;;;;;5051026;28;20213;-70
2021/10/02 09:14:11;;;;;;;0.05;0.05;;;;;;;;;;5058744;28;20290;-75
2021/10/02 09:16:38;;;;;;;0.10;0.10;;;;;;;;;;5054237;28;20203;-75
2021/10/02 09:19:07;;;;;;;0.00;0.00;;;;;;;;;;5055984;28;20211;-75
2021/10/02 09:21:41;;;;;;;0.10;0.10;;;;;;;;;;5052699;28;20199;-75
2021/10/02 09:24:19;;;;;;;0.10;0.10;;;;;;;;;;5052454;28;20202;-75
2021/10/02 09:26:47;;;;;;;0.10;0.10;;;;;;;;;;5056302;28;20241;-75
2021/10/02 09:29:14;;;;;;;0.00;0.00;;;;;;;;;;5047934;28;20283;-75
2021/10/02 09:31:40;;;;;;;0.00;0.00;;;;;;;;;;5047944;28;20218;-72
2021/10/02 09:34:07;;;;;;;0.20;0.20;;;;;;;;;;5045649;28;20210;-75
2021/10/02 09:36:45;;;;;;;0.10;0.10;;;;;;;;;;5053512;28;20199;-63
2021/10/02 09:39:11;;;;;;;0.10;0.10;;;;;;;;;;5048110;28;20199;-64
2021/10/02 09:41:46;;;;;;;0.10;0.10;;;;;;;;;;5053336;28;20203;-64
2021/10/02 09:44:20;;;;;;;0.05;0.05;;;;;;;;;;5051815;28;20207;-65
2021/10/02 09:46:46;;;;;;;0.10;0.10;;;;;;;;;;5048519;28;20386;-66
2021/10/02 09:49:13;;;;;;;0.00;0.00;;;;;;;;;;5049785;28;20523;-64
2021/10/02 09:51:40;;;;;;;0.00;0.00;;;;;;;;;;5053560;28;20353;-65
2021/10/02 09:54:07;;;;;;;0.00;0.00;;;;;;;;;;5051761;28;20211;-64
2021/10/02 09:56:34;;;;;;;0.00;0.00;;;;;;;;;;5044734;28;20211;-64
2021/10/02 09:59:00;;;;;;;0.00;0.00;;;;;;;;;;5050679;28;20254;-65
2021/10/02 10:01:31;;;;;;;0.10;0.10;;;;;;;;;;5052019;28;20272;-64
2021/10/02 10:03:57;;;;;;;0.03;0.03;;;;;;;;;;5051635;28;20320;-65
2021/10/02 10:06:24;;;;;;;0.10;0.10;;;;;;;;;;5052147;28;20251;-65
2021/10/02 10:09:04;;;;;;;0.00;0.00;;;;;;;;;;5057926;28;20204;-64
2021/10/02 10:11:40;;;;;;;0.00;0.00;;;;;;;;;;5055305;28;20211;-66
2021/10/02 10:14:06;;;;;;;0.00;0.00;;;;;;;;;;5054442;28;20205;-63
2021/10/02 10:16:38;;;;;;;0.00;0.00;;;;;;;;;;5049798;28;20262;-63
2021/10/02 10:19:16;;;;;;;0.03;0.03;;;;;;;;;;5065672;28;20335;-63
2021/10/02 10:21:42;;;;;;;0.08;0.08;;;;;;;;;;5055689;28;20257;-64
2021/10/02 10:24:08;;;;;;;0.35;0.35;;;;;;;;;;5052273;28;20504;-66
2021/10/02 10:26:45;;;;;;;0.03;0.03;;;;;;;;;;5061259;28;20224;-65
2021/10/02 10:29:11;;;;;;;0.00;0.00;;;;;;;;;;5052119;28;20204;-64
2021/10/02 10:31:39;;;;;;;0.10;0.10;;;;;;;;;;5056736;28;20204;-67
2021/10/02 10:34:06;;;;;;;0.00;0.00;;;;;;;;;;5054502;28;20204;-65
2021/10/02 10:36:32;;;;;;;0.05;0.05;;;;;;;;;;5048410;28;20192;-65
2021/10/02 10:38:59;;;;;;;0.00;0.00;;;;;;;;;;5046249;28;20204;-66
2021/10/02 10:41:27;;;;;;;0.00;0.00;;;;;;;;;;5053281;28;20249;-64
2021/10/02 10:43:54;;;;;;;0.08;0.08;;;;;;;;;;5061159;28;20258;-64
2021/10/02 10:46:23;;;;;;;0.00;0.00;;;;;;;;;;5065874;28;20224;-64
2021/10/02 10:48:50;;;;;;;0.10;0.10;;;;;;;;;;5060156;28;20201;-64
2021/10/02 10:51:19;;;;;;;0.00;0.00;;;;;;;;;;5057612;28;20529;-66
2021/10/02 10:53:47;;;;;;;0.00;0.00;;;;;;;;;;5060544;28;20220;-65
2021/10/02 10:56:14;;;;;;;0.10;0.10;;;;;;;;;;5053011;28;20243;-64
2021/10/02 10:58:41;;;;;;;0.03;0.03;;;;;;;;;;5058154;28;20212;-66
2021/10/02 11:01:08;;;;;;;0.00;0.00;;;;;;;;;;5048339;28;20201;-64
2021/10/02 11:03:36;;;;;;;0.00;0.00;;;;;;;;;;5060703;28;20204;-64
2021/10/02 11:06:04;;;;;;;0.00;0.00;;;;;;;;;;5065032;28;20254;-64
2021/10/02 11:08:49;;;;;;;0.00;0.00;;;;;;;;;;5065170;28;20236;-65
2021/10/02 11:11:15;;;;;;;0.00;0.00;;;;;;;;;;5059170;28;20205;-64
2021/10/02 11:13:57;;;;;;;0.00;0.00;;;;;;;;;;5052199;28;20200;-65
2021/10/02 11:16:31;;;;;;;0.00;0.00;;;;;;;;;;5059397;28;20207;-64
2021/10/02 11:18:57;;;;;;;0.00;0.00;;;;;;;;;;5049738;28;20247;-65
2021/10/02 11:21:29;;;;;;;0.00;0.00;;;;;;;;;;5059685;28;20404;-65
2021/10/02 11:24:07;;;;;;;0.00;0.00;;;;;;;;;;5048783;28;20543;-64
2021/10/02 11:26:41;;;;;;;0.00;0.00;;;;;;;;;;5065207;28;20291;-65
2021/10/02 11:29:15;;;;;;;0.00;0.00;;;;;;;;;;5045306;28;20227;-64
2021/10/02 11:31:41;;;;;;;0.00;0.00;;;;;;;;;;5064621;28;20200;-65
2021/10/02 11:34:15;;;;;;;0.00;0.00;;;;;;;;;;5065260;28;20216;-66
2021/10/02 11:36:43;;;;;;;0.00;0.00;;;;;;;;;;5060476;28;20201;-65
2021/10/02 11:39:11;;;;;;;0.00;0.00;;;;;;;;;;5044906;28;20217;-66
2021/10/02 11:41:38;;;;;;;0.00;0.00;;;;;;;;;;5045059;28;20243;-65
2021/10/02 11:44:05;;;;;;;0.00;0.00;;;;;;;;;;5044924;28;20493;-64
2021/10/02 11:46:31;;;;;;;0.00;0.00;;;;;;;;;;5044563;28;20225;-66
2021/10/02 11:49:12;;;;;;;0.00;0.00;;;;;;;;;;5044466;28;20209;-65
2021/10/02 11:51:38;;;;;;;0.00;0.00;;;;;;;;;;5059444;28;20200;-65
2021/10/02 11:54:14;;;;;;;0.00;0.00;;;;;;;;;;5064661;28;20266;-65
2021/10/02 11:56:41;;;;;;;0.00;0.00;;;;;;;;;;5064270;28;20204;-64
2021/10/02 11:59:08;;;;;;;0.00;0.00;;;;;;;;;;5051143;28;20200;-64
2021/10/02 12:01:37;;;;;;;0.00;0.00;;;;;;;;;;5051868;28;20504;-66
2021/10/02 12:04:04;;;;;;;0.00;0.00;;;;;;;;;;5063466;28;20215;-63
2021/10/02 12:06:31;;;;;;;0.10;0.10;;;;;;;;;;5063779;28;20267;-65
2021/10/02 12:08:58;;;;;;;0.00;0.00;;;;;;;;;;5064268;28;20200;-64
2021/10/02 12:11:26;;;;;;;0.00;0.00;;;;;;;;;;5064448;28;20432;-64
2021/10/02 12:13:54;;;;;;;0.00;0.00;;;;;;;;;;5064258;28;20456;-63
2021/10/02 12:16:21;;;;;;;0.00;0.00;;;;;;;;;;5064094;28;20488;-64
2021/10/02 12:18:48;;;;;;;0.10;0.10;;;;;;;;;;5063755;28;20277;-65
2021/10/02 12:21:15;;;;;;;0.00;0.00;;;;;;;;;;5050383;28;20346;-65
2021/10/02 12:23:52;;;;;;;0.00;0.00;;;;;;;;;;5064054;28;20204;-64
2021/10/02 12:26:18;;;;;;;0.47;0.47;;;;;;;;;;5064090;28;20231;-65
2021/10/02 12:28:46;;;;;;;0.10;0.10;;;;;;;;;;5063748;28;20218;-64
2021/10/02 12:31:13;;;;;;;0.00;0.00;;;;;;;;;;5063854;28;20214;-64
2021/10/02 12:33:39;;;;;;;0.00;0.00;;;;;;;;;;5063874;28;20243;-64
2021/10/02 12:36:06;;;;;;;0.10;0.10;;;;;;;;;;5060836;28;20228;-64
2021/10/02 12:38:39;;;;;;;1.00;1.00;;;;;;;;;;5052618;28;20207;-65
2021/10/02 12:41:05;;;;;;;0.00;0.00;;;;;;;;;;5043738;28;20205;-65
2021/10/02 12:43:32;;;;;;;0.10;0.10;;;;;;;;;;5053052;28;20206;-65
2021/10/02 12:45:59;;;;;;;0.00;0.00;;;;;;;;;;5049648;28;20227;-65
2021/10/02 12:48:26;;;;;;;0.05;0.05;;;;;;;;;;5063619;28;20570;-64
2021/10/02 12:50:52;;;;;;;0.08;0.08;;;;;;;;;;5057669;28;20304;-64
2021/10/02 12:53:19;;;;;;;0.00;0.00;;;;;;;;;;5063416;28;20208;-65
2021/10/02 12:55:46;;;;;;;0.00;0.00;;;;;;;;;;5063595;28;20201;-65
2021/10/02 12:58:13;;;;;;;0.08;0.08;;;;;;;;;;5063534;28;20207;-65
2021/10/02 13:00:39;;;;;;;0.10;0.10;;;;;;;;;;5058160;28;20203;-64
2021/10/02 13:03:07;;;;;;;0.10;0.10;;;;;;;;;;5054321;28;20244;-65
2021/10/02 13:05:35;;;;;;;0.00;0.00;;;;;;;;;;5059580;28;20234;-66
2021/10/02 13:08:02;;;;;;;0.10;0.10;;;;;;;;;;5052748;28;20210;-65
2021/10/02 13:10:35;;;;;;;0.10;0.10;;;;;;;;;;5061487;28;20206;-64
2021/10/02 13:13:02;;;;;;;0.10;0.10;;;;;;;;;;5052224;28;20198;-64
2021/10/02 13:15:29;;;;;;;0.10;0.10;;;;;;;;;;5063063;28;20212;-64
2021/10/02 13:17:57;;;;;;;0.00;0.00;;;;;;;;;;5062878;28;20206;-64
2021/10/02 13:20:24;;;;;;;0.00;0.00;;;;;;;;;;5062666;28;20221;-62
2021/10/02 13:22:51;;;;;;;0.00;0.00;;;;;;;;;;5063030;28;20207;-64
2021/10/02 13:25:20;;;;;;;0.10;0.10;;;;;;;;;;5062691;28;20210;-65
2021/10/02 13:27:47;;;;;;;0.00;0.00;;;;;;;;;;5048825;28;20293;-64
2021/10/02 13:30:16;;;;;;;0.05;0.05;;;;;;;;;;5063008;28;20495;-65
2021/10/02 13:32:53;;;;;;;0.10;0.10;;;;;;;;;;5062886;28;20217;-65
2021/10/02 13:35:21;;;;;;;0.10;0.10;;;;;;;;;;5062959;28;20546;-65
2021/10/02 13:37:48;;;;;;;0.00;0.00;;;;;;;;;;5062078;28;21621;-65
2021/10/02 13:40:23;;;;;;;0.03;0.03;;;;;;;;;;5062841;28;20255;-64
2021/10/02 13:42:50;;;;;;;0.05;0.05;;;;;;;;;;5060278;28;20252;-65
2021/10/02 13:45:16;;;;;;;0.30;0.30;;;;;;;;;;5051185;28;20201;-65
2021/10/02 13:47:54;;;;;;;0.00;0.00;;;;;;;;;;5062497;28;20232;-64
2021/10/02 13:50:20;;;;;;;0.00;0.00;;;;;;;;;;5062706;28;20249;-64
2021/10/02 13:52:46;;;;;;;0.00;0.00;;;;;;;;;;5062392;28;20373;-64
2021/10/02 13:55:14;;;;;;;0.00;0.00;;;;;;;;;;5062279;28;20252;-64
2021/10/02 13:57:40;;;;;;;0.00;0.00;;;;;;;;;;5062533;28;20213;-65
2021/10/02 14:00:07;;;;;;;0.00;0.00;;;;;;;;;;5062637;28;20210;-64
2021/10/02 14:02:33;;;;;;;0.00;0.00;;;;;;;;;;5055068;28;20222;-65
2021/10/02 14:05:00;;;;;;;0.10;0.10;;;;;;;;;;5042670;28;20210;-65
2021/10/02 14:07:26;;;;;;;0.00;0.00;;;;;;;;;;5045339;28;20533;-65
2021/10/02 14:09:52;;;;;;;0.10;0.10;;;;;;;;;;5062856;28;20259;-64
2021/10/02 14:12:20;;;;;;;0.00;0.00;;;;;;;;;;5048702;28;20209;-65
2021/10/02 14:14:46;;;;;;;0.20;0.20;;;;;;;;;;5055536;28;20205;-63
2021/10/02 14:17:12;;;;;;;0.00;0.00;;;;;;;;;;5055919;28;20203;-64
2021/10/02 14:19:38;;;;;;;0.00;0.00;;;;;;;;;;5048328;28;20218;-66
2021/10/02 14:22:05;;;;;;;0.10;0.10;;;;;;;;;;5051501;28;20249;-64
2021/10/02 14:24:31;;;;;;;0.20;0.20;;;;;;;;;;5045746;28;20248;-65
2021/10/02 14:26:57;;;;;;;0.30;0.30;;;;;;;;;;5052540;28;20230;-65
2021/10/02 14:29:25;;;;;;;0.00;0.00;;;;;;;;;;5042368;28;20388;-65
2021/10/02 14:31:51;;;;;;;0.10;0.10;;;;;;;;;;5042651;28;20392;-65
2021/10/02 14:34:17;;;;;;;0.00;0.00;;;;;;;;;;5047209;28;20215;-64
2021/10/02 14:36:44;;;;;;;0.00;0.00;;;;;;;;;;5056071;28;20249;-65
2021/10/02 14:39:10;;;;;;;0.10;0.10;;;;;;;;;;5042294;28;20204;-65
2021/10/02 14:41:36;;;;;;;0.00;0.00;;;;;;;;;;5060233;28;20210;-63
2021/10/02 14:44:03;;;;;;;0.10;0.10;;;;;;;;;;5056124;28;20277;-64
2021/10/02 14:46:31;;;;;;;0.10;0.10;;;;;;;;;;5052409;28;20230;-64
2021/10/02 14:48:58;;;;;;;0.00;0.00;;;;;;;;;;5050702;28;20539;-65
2021/10/02 14:51:24;;;;;;;0.10;0.10;;;;;;;;;;5056164;28;20206;-65
2021/10/02 14:53:52;;;;;;;0.10;0.10;;;;;;;;;;5065665;28;20203;-63
2021/10/02 14:56:19;;;;;;;0.10;0.10;;;;;;;;;;5052645;28;20207;-65
2021/10/02 14:58:45;;;;;;;0.00;0.00;;;;;;;;;;5052252;28;20226;-64
2021/10/02 15:01:12;;;;;;;0.00;0.00;;;;;;;;;;5061086;28;20207;-65
2021/10/02 15:03:41;;;;;;;0.00;0.00;;;;;;;;;;5049434;28;20506;-64
2021/10/02 15:06:07;;;;;;;0.10;0.10;;;;;;;;;;5052403;28;20234;-65
2021/10/02 15:08:34;;;;;;;0.00;0.00;;;;;;;;;;5062405;28;20242;-64
2021/10/02 15:11:02;;;;;;;0.10;0.10;;;;;;;;;;5062016;28;20207;-64
2021/10/02 15:13:28;;;;;;;0.10;0.10;;;;;;;;;;5047693;28;20204;-64
2021/10/02 15:15:56;;;;;;;0.00;0.00;;;;;;;;;;5054024;28;20201;-64
2021/10/02 15:18:22;;;;;;;0.10;0.10;;;;;;;;;;5047951;28;20299;-65
2021/10/02 15:20:52;;;;;;;0.10;0.10;;;;;;;;;;5061189;28;20215;-64
2021/10/02 15:23:20;;;;;;;0.10;0.10;;;;;;;;;;5061071;28;20197;-66
2021/10/02 15:25:50;;;;;;;0.00;0.00;;;;;;;;;;5060442;28;20575;-64
2021/10/02 15:28:18;;;;;;;0.03;0.03;;;;;;;;;;5062619;28;20248;-64
2021/10/02 15:30:45;;;;;;;0.00;0.00;;;;;;;;;;5063969;28;20202;-64
2021/10/02 15:33:11;;;;;;;0.00;0.00;;;;;;;;;;5053646;28;20203;-65
2021/10/02 15:35:38;;;;;;;0.00;0.00;;;;;;;;;;5059642;28;20262;-64